createdAt,value
2022-11-19T00:00:02.149Z,70.94
2022-11-19T00:03:06.715Z,71.57
2022-11-19T00:06:16.922Z,70.27
2022-11-19T00:09:19.599Z,71.54
2022-11-19T00:12:40.860Z,70.54
2022-11-19T00:15:43.096Z,70.02
2022-11-19T00:18:45.363Z,69.99
2022-11-19T00:21:48.815Z,70.37
2022-11-19T00:24:51.046Z,71.36
2022-11-19T00:27:53.304Z,71.45
2022-11-19T00:31:01.015Z,70.24
2022-11-19T00:34:03.546Z,70.96
2022-11-19T00:37:05.870Z,70.69
2022-11-19T00:40:09.016Z,71.32
2022-11-19T00:43:29.851Z,70.71
2022-11-19T00:46:32.211Z,71.03
2022-11-19T00:49:34.547Z,71.25
2022-11-19T00:52:36.799Z,69.80
2022-11-19T00:55:39.150Z,71.13
2022-11-19T00:58:41.964Z,71.36
2022-11-19T01:01:44.341Z,71.46
2022-11-19T01:04:46.658Z,71.43
2022-11-19T01:07:49.051Z,69.69
2022-11-19T01:10:51.368Z,69.46
2022-11-19T01:13:54.150Z,69.07
2022-11-19T01:16:56.424Z,68.57
2022-11-19T01:19:58.760Z,69.07
2022-11-19T01:23:01.074Z,69.14
2022-11-19T01:26:03.810Z,69.44
2022-11-19T01:29:06.114Z,69.80
2022-11-19T01:32:08.804Z,69.51
2022-11-19T01:35:11.313Z,69.04
2022-11-19T01:38:13.595Z,69.74
2022-11-19T01:41:15.967Z,68.84
2022-11-19T01:44:55.517Z,70.24
2022-11-19T01:48:20.309Z,70.39
2022-11-19T01:51:38.549Z,68.34
2022-11-19T01:54:46.368Z,69.44
2022-11-19T01:57:57.504Z,69.31
2022-11-19T02:01:00.114Z,70.45
2022-11-19T02:04:04.367Z,70.40
2022-11-19T02:07:07.856Z,69.32
2022-11-19T02:10:10.220Z,70.15
2022-11-19T02:13:26.627Z,68.26
2022-11-19T02:16:28.848Z,69.62
2022-11-19T02:19:55.571Z,69.90
2022-11-19T02:23:25.823Z,70.27
2022-11-19T02:27:05.662Z,70.48
2022-11-19T02:30:11.052Z,71.00
2022-11-19T02:33:22.582Z,71.05
2022-11-19T02:36:36.645Z,70.52
2022-11-19T02:39:43.169Z,70.83
2022-11-19T02:43:01.751Z,70.41
2022-11-19T02:46:07.542Z,69.93
2022-11-19T02:49:11.150Z,70.83
2022-11-19T02:52:17.124Z,69.92
2022-11-19T02:55:21.124Z,69.61
2022-11-19T02:58:42.249Z,70.07
2022-11-19T03:02:04.597Z,70.49
2022-11-19T03:05:11.326Z,70.86
2022-11-19T03:08:13.618Z,69.71
2022-11-19T03:11:23.191Z,70.77
2022-11-19T03:14:56.303Z,70.41
2022-11-19T03:18:13.885Z,69.79
2022-11-19T03:21:34.110Z,70.38
2022-11-19T03:24:41.817Z,70.78
2022-11-19T03:27:49.562Z,70.20
2022-11-19T03:30:52.704Z,69.56
2022-11-19T03:34:00.587Z,71.03
2022-11-19T03:37:03.955Z,70.30
2022-11-19T03:40:08.058Z,69.94
2022-11-19T03:43:13.747Z,69.76
2022-11-19T03:46:17.858Z,68.98
2022-11-19T03:49:24.653Z,69.78
2022-11-19T03:52:27.099Z,69.44
2022-11-19T03:55:39.309Z,68.57
2022-11-19T03:58:43.638Z,67.95
2022-11-19T04:01:48.795Z,69.49
2022-11-19T04:04:51.173Z,68.60
2022-11-19T04:07:53.368Z,69.54
2022-11-19T04:10:55.628Z,68.87
2022-11-19T04:13:58.191Z,67.78
2022-11-19T04:17:00.421Z,68.89
2022-11-19T04:20:02.828Z,67.48
2022-11-19T04:23:05.091Z,66.34
2022-11-19T04:26:07.306Z,66.07
2022-11-19T04:29:09.551Z,66.21
2022-11-19T04:32:11.813Z,67.72
2022-11-19T04:35:14.285Z,67.02
2022-11-19T04:38:16.656Z,67.55
2022-11-19T04:41:18.860Z,67.50
2022-11-19T04:44:21.146Z,67.82
2022-11-19T04:47:23.510Z,66.55
2022-11-19T04:50:25.817Z,67.99
2022-11-19T04:53:28.068Z,67.28
2022-11-19T04:56:30.401Z,66.46
2022-11-19T04:59:32.688Z,68.38
2022-11-19T05:02:34.915Z,68.83
2022-11-19T05:05:37.209Z,67.17
2022-11-19T05:08:39.624Z,68.90
2022-11-19T05:11:42.004Z,68.92
2022-11-19T05:14:45.722Z,67.87
2022-11-19T05:17:48.187Z,67.30
2022-11-19T05:20:50.475Z,68.50
2022-11-19T05:23:52.761Z,66.74
2022-11-19T05:26:54.990Z,68.64
2022-11-19T05:29:57.212Z,68.30
2022-11-19T05:32:59.494Z,68.46
2022-11-19T05:36:02.535Z,67.90
2022-11-19T05:39:04.798Z,68.81
2022-11-19T05:42:07.094Z,67.17
2022-11-19T05:45:10.724Z,68.85
2022-11-19T05:48:13.006Z,68.64
2022-11-19T05:51:16.316Z,68.43
2022-11-19T05:54:18.564Z,68.31
2022-11-19T05:57:20.793Z,67.73
2022-11-19T06:00:23.075Z,67.63
2022-11-19T06:03:25.848Z,68.11
2022-11-19T06:06:28.277Z,67.27
2022-11-19T06:09:30.600Z,67.60
2022-11-19T06:12:32.899Z,66.90
2022-11-19T06:15:35.325Z,67.28
2022-11-19T06:18:37.660Z,66.51
2022-11-19T06:21:39.891Z,66.89
2022-11-19T06:24:42.152Z,65.96
2022-11-19T06:27:44.452Z,67.02
2022-11-19T06:30:46.742Z,66.17
2022-11-19T06:33:49.264Z,66.30
2022-11-19T06:36:51.484Z,65.67
2022-11-19T06:39:55.376Z,65.02
2022-11-19T06:42:57.663Z,66.36
2022-11-19T06:45:59.923Z,65.22
2022-11-19T06:49:03.760Z,66.05
2022-11-19T06:52:06.093Z,65.14
2022-11-19T06:55:08.760Z,65.86
2022-11-19T06:58:11.079Z,64.99
2022-11-19T07:01:15.289Z,64.64
2022-11-19T07:04:17.807Z,63.72
2022-11-19T07:07:20.898Z,64.20
2022-11-19T07:10:23.232Z,63.11
2022-11-19T07:13:45.448Z,61.19
2022-11-19T07:16:47.730Z,61.43
2022-11-19T07:19:50.000Z,60.32
2022-11-19T07:22:56.228Z,58.07
2022-11-19T07:26:01.843Z,58.85
2022-11-19T07:29:06.655Z,58.10
2022-11-19T07:32:08.976Z,58.35
2022-11-19T07:35:12.066Z,56.74
2022-11-19T07:38:14.298Z,58.69
2022-11-19T07:41:35.233Z,57.22
2022-11-19T07:44:37.470Z,55.23
2022-11-19T07:47:39.794Z,55.51
2022-11-19T07:50:42.172Z,56.67
2022-11-19T07:53:44.451Z,55.88
2022-11-19T07:56:49.135Z,55.86
2022-11-19T07:59:51.375Z,54.50
2022-11-19T08:02:53.574Z,53.50
2022-11-19T08:05:55.855Z,52.93
2022-11-19T08:08:58.260Z,52.38
2022-11-19T08:12:00.583Z,51.31
2022-11-19T08:15:03.088Z,49.72
2022-11-19T08:18:15.652Z,50.74
2022-11-19T08:21:17.877Z,49.78
2022-11-19T08:24:21.070Z,52.02
2022-11-19T08:27:23.470Z,52.19
2022-11-19T08:30:25.684Z,54.67
2022-11-19T08:33:27.958Z,54.39
2022-11-19T08:36:30.241Z,54.89
2022-11-19T08:39:32.613Z,54.02
2022-11-19T08:42:53.448Z,53.10
2022-11-19T08:45:55.781Z,53.16
2022-11-19T08:48:58.901Z,53.26
2022-11-19T08:52:01.226Z,53.09
2022-11-19T08:55:03.770Z,52.77
2022-11-19T08:58:07.640Z,52.30
2022-11-19T09:01:15.349Z,50.41
2022-11-19T09:04:18.369Z,50.82
2022-11-19T09:07:21.081Z,50.00
2022-11-19T09:10:23.610Z,49.10
2022-11-19T09:13:25.969Z,46.50
2022-11-19T09:16:28.164Z,48.99
2022-11-19T09:19:30.456Z,47.08
2022-11-19T09:22:33.000Z,47.88
2022-11-19T09:25:35.372Z,47.71
2022-11-19T09:28:37.748Z,47.48
2022-11-19T09:31:40.040Z,48.71
2022-11-19T09:34:42.323Z,50.58
2022-11-19T09:37:44.637Z,50.85
2022-11-19T09:40:50.336Z,49.88
2022-11-19T09:44:40.355Z,50.62
2022-11-19T09:47:59.160Z,50.24
2022-11-19T09:51:14.182Z,51.13
2022-11-19T09:54:19.138Z,51.73
2022-11-19T09:57:31.449Z,53.54
2022-11-19T10:00:33.949Z,50.82
2022-11-19T10:03:41.431Z,51.06
2022-11-19T10:07:11.784Z,49.93
2022-11-19T10:10:34.313Z,52.47
2022-11-19T10:14:04.783Z,50.20
2022-11-19T10:17:22.783Z,51.50
2022-11-19T10:20:40.256Z,52.12
2022-11-19T10:23:50.162Z,49.50
2022-11-19T10:27:08.547Z,49.57
2022-11-19T10:30:23.919Z,51.09
2022-11-19T10:33:40.329Z,49.53
2022-11-19T10:36:43.400Z,50.25
2022-11-19T10:39:51.669Z,48.61
2022-11-19T10:42:59.013Z,48.01
2022-11-19T10:46:03.267Z,49.37
2022-11-19T10:49:09.055Z,48.18
2022-11-19T10:52:34.468Z,49.24
2022-11-19T10:55:52.945Z,49.21
2022-11-19T10:58:58.695Z,49.22
2022-11-19T11:02:04.110Z,50.73
2022-11-19T11:05:15.135Z,48.90
2022-11-19T11:08:17.363Z,46.96
2022-11-19T11:11:50.491Z,48.08
2022-11-19T11:14:53.153Z,51.25
2022-11-19T11:18:10.647Z,49.41
2022-11-19T11:21:35.757Z,49.21
2022-11-19T11:24:39.039Z,48.86
2022-11-19T11:27:42.000Z,50.42
2022-11-19T11:30:58.371Z,50.13
2022-11-19T11:34:02.392Z,50.44
2022-11-19T11:37:06.196Z,52.61
2022-11-19T11:40:19.821Z,51.62
2022-11-19T11:43:22.126Z,51.25
2022-11-19T11:46:24.385Z,52.51
2022-11-19T11:49:38.735Z,50.97
2022-11-19T11:52:41.452Z,52.17
2022-11-19T11:55:43.824Z,50.85
2022-11-19T11:58:46.087Z,50.69
2022-11-19T12:02:02.571Z,50.53
2022-11-19T12:05:16.843Z,48.73
2022-11-19T12:08:56.844Z,49.62
2022-11-19T12:12:11.098Z,51.01
2022-11-19T12:15:16.331Z,49.21
2022-11-19T12:18:58.597Z,49.21
2022-11-19T12:22:01.322Z,49.25
2022-11-19T12:25:12.218Z,50.35
2022-11-19T12:28:39.233Z,48.97
2022-11-19T12:32:14.383Z,49.10
2022-11-19T12:35:40.474Z,48.48
2022-11-19T12:39:20.104Z,47.71
2022-11-19T12:42:42.794Z,49.58
2022-11-19T12:46:18.963Z,49.06
2022-11-19T12:49:39.950Z,48.23
2022-11-19T12:53:04.840Z,48.00
2022-11-19T12:56:25.402Z,47.85
2022-11-19T12:59:42.802Z,48.38
2022-11-19T13:02:53.624Z,51.15
2022-11-19T13:06:17.944Z,49.90
2022-11-19T13:09:35.046Z,49.53
2022-11-19T13:12:41.166Z,51.59
2022-11-19T13:15:47.260Z,50.92
2022-11-19T13:18:52.575Z,48.58
2022-11-19T13:22:03.940Z,50.93
2022-11-19T13:25:20.873Z,50.90
2022-11-19T13:28:36.744Z,50.95
2022-11-19T13:31:42.757Z,51.54
2022-11-19T13:35:00.546Z,51.14
2022-11-19T13:38:07.489Z,51.78
2022-11-19T13:41:35.692Z,53.10
2022-11-19T13:44:38.595Z,53.49
2022-11-19T13:47:53.038Z,54.60
2022-11-19T13:51:01.228Z,55.17
2022-11-19T13:54:05.113Z,53.16
2022-11-19T13:57:08.852Z,53.34
2022-11-19T14:00:26.053Z,54.39
2022-11-19T14:03:57.173Z,55.26
2022-11-19T14:07:17.970Z,57.20
2022-11-19T14:10:38.663Z,57.50
2022-11-19T14:13:49.613Z,56.72
2022-11-19T14:17:14.865Z,58.11
2022-11-19T14:21:02.896Z,57.47
2022-11-19T14:24:43.996Z,58.31
2022-11-19T14:27:46.347Z,58.66
2022-11-19T14:31:03.584Z,58.88
2022-11-19T14:34:25.485Z,59.48
2022-11-19T14:37:36.802Z,60.12
2022-11-19T14:40:43.847Z,61.09
2022-11-19T14:44:10.851Z,61.58
2022-11-19T14:47:36.244Z,61.36
2022-11-19T14:50:38.542Z,62.42
2022-11-19T14:53:57.249Z,62.03
2022-11-19T14:57:03.887Z,62.38
2022-11-19T15:00:25.113Z,61.99
2022-11-19T15:03:28.026Z,62.72
2022-11-19T15:06:35.093Z,62.10
2022-11-19T15:09:56.219Z,63.06
2022-11-19T15:13:06.400Z,63.51
2022-11-19T15:16:21.470Z,62.86
2022-11-19T15:19:48.036Z,64.18
2022-11-19T15:23:15.271Z,64.21
2022-11-19T15:26:29.572Z,64.42
2022-11-19T15:30:07.684Z,63.55
2022-11-19T15:33:28.231Z,63.76
2022-11-19T15:36:30.482Z,63.81
2022-11-19T15:39:39.346Z,64.11
2022-11-19T15:42:52.350Z,64.06
2022-11-19T15:46:05.106Z,63.60
2022-11-19T15:49:10.218Z,64.67
2022-11-19T15:52:18.723Z,65.72
2022-11-19T15:55:26.907Z,65.59
2022-11-19T15:58:45.953Z,65.17
2022-11-19T16:02:17.168Z,65.14
2022-11-19T16:05:32.711Z,65.47
2022-11-19T16:08:35.751Z,64.77
2022-11-19T16:11:57.240Z,65.47
2022-11-19T16:15:18.305Z,65.27
2022-11-19T16:18:20.627Z,64.14
2022-11-19T16:21:25.500Z,65.04
2022-11-19T16:24:47.765Z,64.46
2022-11-19T16:27:50.067Z,64.83
2022-11-19T16:30:54.821Z,64.82
2022-11-19T16:33:57.442Z,63.99
2022-11-19T16:37:00.040Z,64.21
2022-11-19T16:40:03.095Z,64.46
2022-11-19T16:43:05.504Z,65.34
2022-11-19T16:46:08.000Z,65.29
2022-11-19T16:49:29.724Z,65.91
2022-11-19T16:52:41.181Z,65.88
2022-11-19T16:55:50.760Z,65.67
2022-11-19T16:58:59.657Z,65.68
2022-11-19T17:02:02.631Z,65.22
2022-11-19T17:05:14.045Z,66.03
2022-11-19T17:08:36.864Z,65.93
2022-11-19T17:11:58.810Z,65.82
2022-11-19T17:15:08.430Z,65.27
2022-11-19T17:18:15.110Z,66.01
2022-11-19T17:21:29.717Z,66.00
2022-11-19T17:24:41.636Z,65.31
2022-11-19T17:27:44.203Z,65.51
2022-11-19T17:30:49.538Z,64.27
2022-11-19T17:33:54.837Z,64.51
2022-11-19T17:36:57.364Z,65.15
2022-11-19T17:39:59.655Z,64.46
2022-11-19T17:43:20.567Z,63.94
2022-11-19T17:46:27.304Z,63.86
2022-11-19T17:49:29.656Z,64.16
2022-11-19T17:52:32.835Z,64.37
2022-11-19T17:55:35.218Z,63.72
2022-11-19T17:58:37.407Z,64.82
2022-11-19T18:01:39.701Z,65.56
2022-11-19T18:04:44.018Z,64.28
2022-11-19T18:07:46.841Z,64.55
2022-11-19T18:10:49.373Z,65.43
2022-11-19T18:13:53.545Z,64.64
2022-11-19T18:16:58.903Z,65.79
2022-11-19T18:20:01.109Z,65.52
2022-11-19T18:23:03.859Z,65.11
2022-11-19T18:26:09.113Z,64.69
2022-11-19T18:29:11.699Z,64.96
2022-11-19T18:32:17.159Z,65.37
2022-11-19T18:35:19.957Z,64.75
2022-11-19T18:38:22.241Z,65.45
2022-11-19T18:41:24.767Z,63.80
2022-11-19T18:44:33.521Z,64.92
2022-11-19T18:47:35.882Z,64.54
2022-11-19T18:50:38.166Z,64.99
2022-11-19T18:53:40.455Z,64.61
2022-11-19T18:56:42.766Z,66.09
2022-11-19T18:59:45.075Z,65.81
2022-11-19T19:02:47.381Z,64.82
2022-11-19T19:05:49.701Z,64.63
2022-11-19T19:08:52.097Z,63.98
2022-11-19T19:12:13.973Z,64.98
2022-11-19T19:15:16.642Z,63.63
2022-11-19T19:18:19.351Z,64.39
2022-11-19T19:21:22.937Z,63.68
2022-11-19T19:24:25.204Z,64.75
2022-11-19T19:27:27.631Z,64.36
2022-11-19T19:30:30.132Z,64.74
2022-11-19T19:33:32.789Z,63.95
2022-11-19T19:36:35.221Z,64.05
2022-11-19T19:39:37.537Z,63.13
2022-11-19T19:42:41.375Z,62.93
2022-11-19T19:45:43.864Z,63.29
2022-11-19T19:48:48.075Z,62.88
2022-11-19T19:51:50.746Z,63.99
2022-11-19T19:54:52.983Z,63.57
2022-11-19T19:57:55.535Z,62.42
2022-11-19T20:01:08.724Z,63.45
2022-11-19T20:04:11.575Z,62.21
2022-11-19T20:07:14.055Z,63.14
2022-11-19T20:10:16.408Z,62.08
2022-11-19T20:13:27.489Z,61.95
2022-11-19T20:16:32.222Z,61.89
2022-11-19T20:19:34.639Z,62.01
2022-11-19T20:22:37.030Z,61.25
2022-11-19T20:25:39.373Z,60.16
2022-11-19T20:28:41.686Z,61.13
2022-11-19T20:31:48.353Z,61.36
2022-11-19T20:34:50.653Z,61.86
2022-11-19T20:37:54.261Z,61.14
2022-11-19T20:41:01.340Z,61.32
2022-11-19T20:44:23.483Z,60.90
2022-11-19T20:47:25.981Z,62.04
2022-11-19T20:50:28.240Z,61.81
2022-11-19T20:53:30.762Z,61.45
2022-11-19T20:56:33.359Z,61.63
2022-11-19T20:59:35.685Z,61.27
2022-11-19T21:02:37.942Z,60.59
2022-11-19T21:05:40.366Z,60.29
2022-11-19T21:08:42.803Z,60.67
2022-11-19T21:11:45.586Z,61.10
2022-11-19T21:14:48.184Z,61.54
2022-11-19T21:17:50.506Z,61.03
2022-11-19T21:20:52.855Z,60.91
2022-11-19T21:23:55.529Z,61.53
2022-11-19T21:27:00.851Z,61.02
2022-11-19T21:30:03.659Z,61.25
2022-11-19T21:33:05.951Z,61.69
2022-11-19T21:36:08.693Z,62.02
2022-11-19T21:39:11.903Z,61.88
2022-11-19T21:42:14.316Z,61.68
2022-11-19T21:45:16.591Z,61.36
2022-11-19T21:48:18.857Z,61.81
2022-11-19T21:51:24.606Z,61.91
2022-11-19T21:54:27.284Z,60.87
2022-11-19T21:57:29.562Z,60.42
2022-11-19T22:00:35.101Z,61.31
2022-11-19T22:03:37.407Z,60.34
2022-11-19T22:06:40.137Z,61.16
2022-11-19T22:09:42.577Z,60.32
2022-11-19T22:12:45.205Z,61.01
2022-11-19T22:15:47.441Z,59.46
2022-11-19T22:18:49.709Z,60.00
2022-11-19T22:21:52.012Z,58.65
2022-11-19T22:24:54.363Z,59.51
2022-11-19T22:27:56.631Z,58.99
2022-11-19T22:30:59.622Z,59.68
2022-11-19T22:34:01.911Z,60.72
2022-11-19T22:37:07.555Z,59.69
2022-11-19T22:40:10.560Z,58.48
2022-11-19T22:43:13.206Z,58.86
2022-11-19T22:46:15.983Z,58.79
2022-11-19T22:49:18.697Z,59.53
2022-11-19T22:52:21.247Z,59.94
2022-11-19T22:55:23.472Z,58.89
2022-11-19T22:58:25.708Z,59.65
2022-11-19T23:01:30.066Z,58.24
2022-11-19T23:04:32.478Z,58.86
2022-11-19T23:07:34.786Z,59.60
2022-11-19T23:10:37.250Z,60.71
2022-11-19T23:13:41.758Z,59.01
2022-11-19T23:16:44.539Z,59.33
2022-11-19T23:19:47.051Z,58.53
2022-11-19T23:22:49.307Z,58.42
2022-11-19T23:25:58.770Z,58.51
2022-11-19T23:29:01.323Z,60.49
2022-11-19T23:32:03.646Z,58.97
2022-11-19T23:35:06.104Z,59.08
2022-11-19T23:38:08.992Z,57.63
2022-11-19T23:41:13.154Z,58.73
2022-11-19T23:44:15.397Z,59.30
2022-11-19T23:47:18.184Z,57.81
2022-11-19T23:50:20.598Z,57.72
2022-11-19T23:53:22.943Z,58.49
2022-11-19T23:56:26.234Z,57.88
2022-11-19T23:59:28.812Z,58.59
